sensor_id;sensor_type;location;lat;lon;timestamp;P1;durP1;ratioP1;P2;durP2;ratioP2
4486;SDS011;2256;48.740;9.106;2023-12-29T00:01:34;4.53;;;2.47;;
4486;SDS011;2256;48.740;9.106;2023-12-29T00:04:02;8.17;;;2.63;;
4486;SDS011;2256;48.740;9.106;2023-12-29T00:06:30;3.43;;;2.17;;
4486;SDS011;2256;48.740;9.106;2023-12-29T00:08:56;5.10;;;2.70;;
4486;SDS011;2256;48.740;9.106;2023-12-29T00:11:25;5.10;;;2.17;;
4486;SDS011;2256;48.740;9.106;2023-12-29T00:13:51;2.20;;;1.90;;
4486;SDS011;2256;48.740;9.106;2023-12-29T00:16:18;4.13;;;2.30;;
4486;SDS011;2256;48.740;9.106;2023-12-29T00:18:45;2.80;;;2.20;;
4486;SDS011;2256;48.740;9.106;2023-12-29T00:21:13;2.23;;;1.93;;
4486;SDS011;2256;48.740;9.106;2023-12-29T00:23:40;4.77;;;2.73;;
4486;SDS011;2256;48.740;9.106;2023-12-29T00:26:06;4.87;;;2.23;;
4486;SDS011;2256;48.740;9.106;2023-12-29T00:28:33;2.53;;;2.33;;
4486;SDS011;2256;48.740;9.106;2023-12-29T00:31:01;5.77;;;2.30;;
4486;SDS011;2256;48.740;9.106;2023-12-29T00:33:30;2.47;;;2.10;;
4486;SDS011;2256;48.740;9.106;2023-12-29T00:35:57;2.87;;;2.43;;
4486;SDS011;2256;48.740;9.106;2023-12-29T00:38:26;3.27;;;2.40;;
4486;SDS011;2256;48.740;9.106;2023-12-29T00:40:54;3.87;;;2.57;;
4486;SDS011;2256;48.740;9.106;2023-12-29T00:43:21;3.17;;;2.37;;
4486;SDS011;2256;48.740;9.106;2023-12-29T00:45:49;3.27;;;2.30;;
4486;SDS011;2256;48.740;9.106;2023-12-29T00:48:15;3.47;;;2.47;;
4486;SDS011;2256;48.740;9.106;2023-12-29T00:50:42;4.83;;;2.47;;
4486;SDS011;2256;48.740;9.106;2023-12-29T00:53:09;2.87;;;2.57;;
4486;SDS011;2256;48.740;9.106;2023-12-29T00:55:37;3.13;;;2.13;;
4486;SDS011;2256;48.740;9.106;2023-12-29T00:58:04;9.60;;;2.53;;
4486;SDS011;2256;48.740;9.106;2023-12-29T01:00:30;2.07;;;1.87;;
4486;SDS011;2256;48.740;9.106;2023-12-29T01:02:57;3.33;;;2.60;;
4486;SDS011;2256;48.740;9.106;2023-12-29T01:05:24;4.77;;;2.10;;
4486;SDS011;2256;48.740;9.106;2023-12-29T01:07:52;4.30;;;2.20;;
4486;SDS011;2256;48.740;9.106;2023-12-29T01:10:19;6.73;;;2.70;;
4486;SDS011;2256;48.740;9.106;2023-12-29T01:12:47;3.33;;;2.43;;
4486;SDS011;2256;48.740;9.106;2023-12-29T01:15:14;5.27;;;2.40;;
4486;SDS011;2256;48.740;9.106;2023-12-29T01:17:41;2.57;;;2.37;;
4486;SDS011;2256;48.740;9.106;2023-12-29T01:20:08;3.53;;;2.67;;
4486;SDS011;2256;48.740;9.106;2023-12-29T01:22:35;5.17;;;2.43;;
4486;SDS011;2256;48.740;9.106;2023-12-29T01:25:02;2.37;;;2.17;;
4486;SDS011;2256;48.740;9.106;2023-12-29T01:27:29;3.70;;;2.43;;
4486;SDS011;2256;48.740;9.106;2023-12-29T01:29:57;3.83;;;2.67;;
4486;SDS011;2256;48.740;9.106;2023-12-29T01:32:25;3.40;;;2.60;;
4486;SDS011;2256;48.740;9.106;2023-12-29T01:34:52;3.27;;;2.37;;
4486;SDS011;2256;48.740;9.106;2023-12-29T01:37:20;7.23;;;3.40;;
4486;SDS011;2256;48.740;9.106;2023-12-29T01:39:48;4.90;;;2.93;;
4486;SDS011;2256;48.740;9.106;2023-12-29T01:42:14;3.47;;;2.70;;
4486;SDS011;2256;48.740;9.106;2023-12-29T01:44:41;3.57;;;2.77;;
4486;SDS011;2256;48.740;9.106;2023-12-29T01:47:12;3.57;;;2.73;;
4486;SDS011;2256;48.740;9.106;2023-12-29T01:49:41;4.10;;;2.57;;
4486;SDS011;2256;48.740;9.106;2023-12-29T01:52:10;5.80;;;3.57;;
4486;SDS011;2256;48.740;9.106;2023-12-29T01:54:38;3.10;;;2.60;;
4486;SDS011;2256;48.740;9.106;2023-12-29T01:57:07;3.97;;;2.50;;
4486;SDS011;2256;48.740;9.106;2023-12-29T01:59:35;5.03;;;2.17;;
4486;SDS011;2256;48.740;9.106;2023-12-29T02:02:02;4.23;;;2.67;;
4486;SDS011;2256;48.740;9.106;2023-12-29T02:04:31;5.60;;;3.10;;
4486;SDS011;2256;48.740;9.106;2023-12-29T02:06:59;3.23;;;2.80;;
4486;SDS011;2256;48.740;9.106;2023-12-29T02:09:25;4.67;;;2.80;;
4486;SDS011;2256;48.740;9.106;2023-12-29T02:11:53;3.90;;;2.83;;
4486;SDS011;2256;48.740;9.106;2023-12-29T02:14:20;5.10;;;3.00;;
4486;SDS011;2256;48.740;9.106;2023-12-29T02:16:50;4.00;;;3.00;;
4486;SDS011;2256;48.740;9.106;2023-12-29T02:19:25;4.30;;;2.70;;
4486;SDS011;2256;48.740;9.106;2023-12-29T02:22:06;5.93;;;3.33;;
4486;SDS011;2256;48.740;9.106;2023-12-29T02:24:33;4.47;;;3.20;;
4486;SDS011;2256;48.740;9.106;2023-12-29T02:27:05;3.80;;;2.87;;
4486;SDS011;2256;48.740;9.106;2023-12-29T02:29:38;4.47;;;2.60;;
4486;SDS011;2256;48.740;9.106;2023-12-29T02:32:11;5.37;;;2.40;;
4486;SDS011;2256;48.740;9.106;2023-12-29T02:34:42;3.23;;;2.50;;
4486;SDS011;2256;48.740;9.106;2023-12-29T02:37:11;6.20;;;2.90;;
4486;SDS011;2256;48.740;9.106;2023-12-29T02:39:38;5.37;;;3.00;;
4486;SDS011;2256;48.740;9.106;2023-12-29T02:42:07;5.20;;;2.67;;
4486;SDS011;2256;48.740;9.106;2023-12-29T02:44:34;3.47;;;2.37;;
4486;SDS011;2256;48.740;9.106;2023-12-29T02:47:00;4.00;;;2.90;;
4486;SDS011;2256;48.740;9.106;2023-12-29T02:49:29;3.13;;;2.50;;
4486;SDS011;2256;48.740;9.106;2023-12-29T02:51:55;2.77;;;2.53;;
4486;SDS011;2256;48.740;9.106;2023-12-29T02:54:22;3.67;;;2.73;;
4486;SDS011;2256;48.740;9.106;2023-12-29T02:56:49;6.00;;;3.33;;
4486;SDS011;2256;48.740;9.106;2023-12-29T02:59:17;6.37;;;3.60;;
4486;SDS011;2256;48.740;9.106;2023-12-29T03:01:44;3.77;;;2.67;;
4486;SDS011;2256;48.740;9.106;2023-12-29T03:04:11;6.70;;;2.73;;
4486;SDS011;2256;48.740;9.106;2023-12-29T03:06:39;5.20;;;2.80;;
4486;SDS011;2256;48.740;9.106;2023-12-29T03:09:06;6.00;;;3.20;;
4486;SDS011;2256;48.740;9.106;2023-12-29T03:11:34;5.37;;;2.90;;
4486;SDS011;2256;48.740;9.106;2023-12-29T03:14:01;5.47;;;3.03;;
4486;SDS011;2256;48.740;9.106;2023-12-29T03:16:29;3.77;;;2.73;;
4486;SDS011;2256;48.740;9.106;2023-12-29T03:18:56;6.77;;;3.47;;
4486;SDS011;2256;48.740;9.106;2023-12-29T03:21:22;4.17;;;3.10;;
4486;SDS011;2256;48.740;9.106;2023-12-29T03:23:49;3.73;;;3.10;;
4486;SDS011;2256;48.740;9.106;2023-12-29T03:26:16;5.30;;;2.90;;
4486;SDS011;2256;48.740;9.106;2023-12-29T03:28:44;3.80;;;2.70;;
4486;SDS011;2256;48.740;9.106;2023-12-29T03:31:11;6.00;;;3.63;;
4486;SDS011;2256;48.740;9.106;2023-12-29T03:33:39;3.47;;;2.83;;
4486;SDS011;2256;48.740;9.106;2023-12-29T03:36:06;3.17;;;2.60;;
4486;SDS011;2256;48.740;9.106;2023-12-29T03:38:35;2.90;;;2.20;;
4486;SDS011;2256;48.740;9.106;2023-12-29T03:41:02;7.57;;;2.83;;
4486;SDS011;2256;48.740;9.106;2023-12-29T03:43:29;7.43;;;2.40;;
4486;SDS011;2256;48.740;9.106;2023-12-29T03:45:56;6.27;;;3.10;;
4486;SDS011;2256;48.740;9.106;2023-12-29T03:48:23;5.43;;;3.07;;
4486;SDS011;2256;48.740;9.106;2023-12-29T03:50:51;3.00;;;2.70;;
4486;SDS011;2256;48.740;9.106;2023-12-29T03:53:19;4.40;;;2.90;;
4486;SDS011;2256;48.740;9.106;2023-12-29T03:55:45;4.27;;;2.20;;
4486;SDS011;2256;48.740;9.106;2023-12-29T03:58:11;7.83;;;3.23;;
4486;SDS011;2256;48.740;9.106;2023-12-29T04:00:38;4.07;;;2.70;;
4486;SDS011;2256;48.740;9.106;2023-12-29T04:03:07;4.60;;;2.77;;
4486;SDS011;2256;48.740;9.106;2023-12-29T04:05:34;7.03;;;3.30;;
4486;SDS011;2256;48.740;9.106;2023-12-29T04:08:02;3.70;;;2.63;;
4486;SDS011;2256;48.740;9.106;2023-12-29T04:10:29;4.73;;;2.70;;
4486;SDS011;2256;48.740;9.106;2023-12-29T04:12:56;4.13;;;2.87;;
4486;SDS011;2256;48.740;9.106;2023-12-29T04:15:23;2.50;;;2.30;;
4486;SDS011;2256;48.740;9.106;2023-12-29T04:17:50;2.70;;;2.37;;
4486;SDS011;2256;48.740;9.106;2023-12-29T04:20:16;4.27;;;2.80;;
4486;SDS011;2256;48.740;9.106;2023-12-29T04:22:43;3.67;;;2.50;;
4486;SDS011;2256;48.740;9.106;2023-12-29T04:25:11;5.53;;;2.13;;
4486;SDS011;2256;48.740;9.106;2023-12-29T04:27:39;4.20;;;2.47;;
4486;SDS011;2256;48.740;9.106;2023-12-29T04:30:06;3.90;;;2.33;;
4486;SDS011;2256;48.740;9.106;2023-12-29T04:32:33;3.90;;;2.60;;
4486;SDS011;2256;48.740;9.106;2023-12-29T04:35:00;3.30;;;2.70;;
4486;SDS011;2256;48.740;9.106;2023-12-29T04:37:27;5.27;;;2.90;;
4486;SDS011;2256;48.740;9.106;2023-12-29T04:39:54;8.47;;;3.17;;
4486;SDS011;2256;48.740;9.106;2023-12-29T04:42:23;4.20;;;2.63;;
4486;SDS011;2256;48.740;9.106;2023-12-29T04:44:49;10.13;;;2.60;;
4486;SDS011;2256;48.740;9.106;2023-12-29T04:47:16;3.80;;;2.60;;
4486;SDS011;2256;48.740;9.106;2023-12-29T04:49:43;4.40;;;2.70;;
4486;SDS011;2256;48.740;9.106;2023-12-29T04:52:10;3.33;;;2.50;;
4486;SDS011;2256;48.740;9.106;2023-12-29T04:54:37;6.23;;;2.33;;
4486;SDS011;2256;48.740;9.106;2023-12-29T04:57:03;7.70;;;3.20;;
4486;SDS011;2256;48.740;9.106;2023-12-29T04:59:32;4.27;;;3.00;;
4486;SDS011;2256;48.740;9.106;2023-12-29T05:01:59;4.40;;;2.83;;
4486;SDS011;2256;48.740;9.106;2023-12-29T05:04:26;3.77;;;2.73;;
4486;SDS011;2256;48.740;9.106;2023-12-29T05:06:53;3.47;;;2.60;;
4486;SDS011;2256;48.740;9.106;2023-12-29T05:09:21;4.07;;;2.73;;
4486;SDS011;2256;48.740;9.106;2023-12-29T05:11:47;3.80;;;2.90;;
4486;SDS011;2256;48.740;9.106;2023-12-29T05:14:15;3.87;;;3.03;;
4486;SDS011;2256;48.740;9.106;2023-12-29T05:16:43;7.90;;;2.53;;
4486;SDS011;2256;48.740;9.106;2023-12-29T05:19:10;4.57;;;2.67;;
4486;SDS011;2256;48.740;9.106;2023-12-29T05:21:37;3.10;;;2.80;;
4486;SDS011;2256;48.740;9.106;2023-12-29T05:24:04;2.60;;;2.23;;
4486;SDS011;2256;48.740;9.106;2023-12-29T05:26:31;4.10;;;2.87;;
4486;SDS011;2256;48.740;9.106;2023-12-29T05:28:58;3.17;;;2.57;;
4486;SDS011;2256;48.740;9.106;2023-12-29T05:31:25;4.90;;;2.90;;
4486;SDS011;2256;48.740;9.106;2023-12-29T05:33:54;2.63;;;2.43;;
4486;SDS011;2256;48.740;9.106;2023-12-29T05:36:21;9.97;;;3.17;;
4486;SDS011;2256;48.740;9.106;2023-12-29T05:38:48;4.43;;;2.50;;
4486;SDS011;2256;48.740;9.106;2023-12-29T05:41:15;5.00;;;2.80;;
4486;SDS011;2256;48.740;9.106;2023-12-29T05:43:42;4.63;;;3.07;;
4486;SDS011;2256;48.740;9.106;2023-12-29T05:46:09;4.10;;;3.00;;
4486;SDS011;2256;48.740;9.106;2023-12-29T05:48:37;3.33;;;2.27;;
4486;SDS011;2256;48.740;9.106;2023-12-29T05:51:07;12.17;;;3.10;;
4486;SDS011;2256;48.740;9.106;2023-12-29T05:53:35;6.63;;;3.07;;
4486;SDS011;2256;48.740;9.106;2023-12-29T05:56:02;3.63;;;2.57;;
4486;SDS011;2256;48.740;9.106;2023-12-29T05:58:29;6.00;;;2.80;;
4486;SDS011;2256;48.740;9.106;2023-12-29T06:00:56;2.83;;;2.57;;
4486;SDS011;2256;48.740;9.106;2023-12-29T06:03:24;4.80;;;3.23;;
4486;SDS011;2256;48.740;9.106;2023-12-29T06:05:50;3.53;;;2.60;;
4486;SDS011;2256;48.740;9.106;2023-12-29T06:08:19;3.30;;;2.57;;
4486;SDS011;2256;48.740;9.106;2023-12-29T06:10:45;3.57;;;2.47;;
4486;SDS011;2256;48.740;9.106;2023-12-29T06:13:12;2.77;;;2.43;;
4486;SDS011;2256;48.740;9.106;2023-12-29T06:15:40;6.83;;;3.10;;
4486;SDS011;2256;48.740;9.106;2023-12-29T06:18:06;3.93;;;3.03;;
4486;SDS011;2256;48.740;9.106;2023-12-29T06:20:34;3.63;;;2.73;;
4486;SDS011;2256;48.740;9.106;2023-12-29T06:23:01;5.67;;;3.00;;
4486;SDS011;2256;48.740;9.106;2023-12-29T06:25:29;3.77;;;2.70;;
4486;SDS011;2256;48.740;9.106;2023-12-29T06:27:58;3.27;;;2.40;;
4486;SDS011;2256;48.740;9.106;2023-12-29T06:30:25;4.70;;;2.23;;
4486;SDS011;2256;48.740;9.106;2023-12-29T06:32:52;3.17;;;2.70;;
4486;SDS011;2256;48.740;9.106;2023-12-29T06:35:19;4.40;;;2.53;;
4486;SDS011;2256;48.740;9.106;2023-12-29T06:37:47;5.20;;;2.60;;
4486;SDS011;2256;48.740;9.106;2023-12-29T06:40:17;5.93;;;2.50;;
4486;SDS011;2256;48.740;9.106;2023-12-29T06:42:45;4.00;;;2.40;;
4486;SDS011;2256;48.740;9.106;2023-12-29T06:45:12;3.00;;;2.60;;
4486;SDS011;2256;48.740;9.106;2023-12-29T06:47:39;13.63;;;3.07;;
4486;SDS011;2256;48.740;9.106;2023-12-29T06:50:06;15.40;;;2.70;;
4486;SDS011;2256;48.740;9.106;2023-12-29T06:52:37;3.87;;;2.40;;
4486;SDS011;2256;48.740;9.106;2023-12-29T06:55:05;7.40;;;2.50;;
4486;SDS011;2256;48.740;9.106;2023-12-29T06:57:32;2.33;;;2.10;;
4486;SDS011;2256;48.740;9.106;2023-12-29T07:00:00;2.83;;;2.23;;
4486;SDS011;2256;48.740;9.106;2023-12-29T07:02:27;9.10;;;2.77;;
4486;SDS011;2256;48.740;9.106;2023-12-29T07:04:54;3.90;;;2.30;;
4486;SDS011;2256;48.740;9.106;2023-12-29T07:07:22;8.73;;;2.43;;
4486;SDS011;2256;48.740;9.106;2023-12-29T07:09:48;8.73;;;2.23;;
4486;SDS011;2256;48.740;9.106;2023-12-29T07:12:15;5.50;;;2.30;;
4486;SDS011;2256;48.740;9.106;2023-12-29T07:14:43;4.80;;;2.47;;
4486;SDS011;2256;48.740;9.106;2023-12-29T07:17:11;2.30;;;2.10;;
4486;SDS011;2256;48.740;9.106;2023-12-29T07:19:38;4.07;;;2.80;;
4486;SDS011;2256;48.740;9.106;2023-12-29T07:22:05;4.00;;;2.53;;
4486;SDS011;2256;48.740;9.106;2023-12-29T07:24:33;2.93;;;2.10;;
4486;SDS011;2256;48.740;9.106;2023-12-29T07:27:00;3.50;;;2.50;;
4486;SDS011;2256;48.740;9.106;2023-12-29T07:29:27;4.67;;;2.10;;
4486;SDS011;2256;48.740;9.106;2023-12-29T07:31:54;4.30;;;2.67;;
4486;SDS011;2256;48.740;9.106;2023-12-29T07:34:23;2.10;;;1.90;;
4486;SDS011;2256;48.740;9.106;2023-12-29T07:36:50;2.50;;;2.23;;
4486;SDS011;2256;48.740;9.106;2023-12-29T07:39:17;5.20;;;2.40;;
4486;SDS011;2256;48.740;9.106;2023-12-29T07:41:44;4.10;;;2.40;;
4486;SDS011;2256;48.740;9.106;2023-12-29T07:44:13;3.00;;;2.23;;
4486;SDS011;2256;48.740;9.106;2023-12-29T07:46:40;2.60;;;2.40;;
4486;SDS011;2256;48.740;9.106;2023-12-29T07:49:07;4.40;;;2.67;;
4486;SDS011;2256;48.740;9.106;2023-12-29T07:51:38;3.73;;;2.60;;
4486;SDS011;2256;48.740;9.106;2023-12-29T07:54:05;3.47;;;2.30;;
4486;SDS011;2256;48.740;9.106;2023-12-29T07:56:32;6.30;;;2.73;;
4486;SDS011;2256;48.740;9.106;2023-12-29T07:58:59;2.30;;;2.13;;
4486;SDS011;2256;48.740;9.106;2023-12-29T08:01:26;4.97;;;2.67;;
4486;SDS011;2256;48.740;9.106;2023-12-29T08:03:53;4.00;;;2.43;;
4486;SDS011;2256;48.740;9.106;2023-12-29T08:06:20;12.77;;;3.43;;
4486;SDS011;2256;48.740;9.106;2023-12-29T08:08:48;4.77;;;2.73;;
4486;SDS011;2256;48.740;9.106;2023-12-29T08:11:15;2.87;;;2.37;;
4486;SDS011;2256;48.740;9.106;2023-12-29T08:13:43;4.07;;;2.23;;
4486;SDS011;2256;48.740;9.106;2023-12-29T08:16:10;9.93;;;3.03;;
4486;SDS011;2256;48.740;9.106;2023-12-29T08:18:37;8.20;;;3.30;;
4486;SDS011;2256;48.740;9.106;2023-12-29T08:21:04;3.47;;;2.20;;
4486;SDS011;2256;48.740;9.106;2023-12-29T08:23:31;6.03;;;2.47;;
4486;SDS011;2256;48.740;9.106;2023-12-29T08:25:59;9.63;;;2.67;;
4486;SDS011;2256;48.740;9.106;2023-12-29T08:28:28;2.77;;;2.37;;
4486;SDS011;2256;48.740;9.106;2023-12-29T08:30:55;7.23;;;2.37;;
4486;SDS011;2256;48.740;9.106;2023-12-29T08:33:22;5.60;;;2.53;;
4486;SDS011;2256;48.740;9.106;2023-12-29T08:35:48;6.83;;;2.27;;
4486;SDS011;2256;48.740;9.106;2023-12-29T08:38:15;2.53;;;2.03;;
4486;SDS011;2256;48.740;9.106;2023-12-29T08:40:42;8.87;;;3.17;;
4486;SDS011;2256;48.740;9.106;2023-12-29T08:43:11;5.87;;;2.63;;
4486;SDS011;2256;48.740;9.106;2023-12-29T08:45:38;5.57;;;2.60;;
4486;SDS011;2256;48.740;9.106;2023-12-29T08:48:06;4.17;;;2.40;;
4486;SDS011;2256;48.740;9.106;2023-12-29T08:50:33;6.73;;;3.20;;
4486;SDS011;2256;48.740;9.106;2023-12-29T08:53:00;2.13;;;1.93;;
4486;SDS011;2256;48.740;9.106;2023-12-29T08:55:27;8.20;;;2.60;;
4486;SDS011;2256;48.740;9.106;2023-12-29T08:57:54;3.43;;;2.57;;
4486;SDS011;2256;48.740;9.106;2023-12-29T09:00:22;4.10;;;2.77;;
4486;SDS011;2256;48.740;9.106;2023-12-29T09:02:49;2.30;;;2.10;;
4486;SDS011;2256;48.740;9.106;2023-12-29T09:05:16;5.77;;;2.27;;
4486;SDS011;2256;48.740;9.106;2023-12-29T09:07:44;2.30;;;2.07;;
4486;SDS011;2256;48.740;9.106;2023-12-29T09:10:10;5.53;;;2.40;;
4486;SDS011;2256;48.740;9.106;2023-12-29T09:12:37;6.30;;;2.73;;
4486;SDS011;2256;48.740;9.106;2023-12-29T09:15:05;3.03;;;2.33;;
4486;SDS011;2256;48.740;9.106;2023-12-29T09:17:34;3.63;;;2.87;;
4486;SDS011;2256;48.740;9.106;2023-12-29T09:20:01;1.70;;;1.60;;
4486;SDS011;2256;48.740;9.106;2023-12-29T09:22:28;4.10;;;1.90;;
4486;SDS011;2256;48.740;9.106;2023-12-29T09:24:55;1.77;;;1.67;;
4486;SDS011;2256;48.740;9.106;2023-12-29T09:27:21;5.20;;;2.20;;
4486;SDS011;2256;48.740;9.106;2023-12-29T09:29:49;3.20;;;2.13;;
4486;SDS011;2256;48.740;9.106;2023-12-29T09:32:17;2.17;;;2.00;;
4486;SDS011;2256;48.740;9.106;2023-12-29T09:34:45;3.00;;;2.30;;
4486;SDS011;2256;48.740;9.106;2023-12-29T09:37:12;4.30;;;1.90;;
4486;SDS011;2256;48.740;9.106;2023-12-29T09:39:39;2.17;;;1.80;;
4486;SDS011;2256;48.740;9.106;2023-12-29T09:42:06;1.70;;;1.47;;
4486;SDS011;2256;48.740;9.106;2023-12-29T09:44:35;2.30;;;1.77;;
4486;SDS011;2256;48.740;9.106;2023-12-29T09:47:03;2.00;;;1.80;;
4486;SDS011;2256;48.740;9.106;2023-12-29T09:49:33;1.93;;;1.83;;
4486;SDS011;2256;48.740;9.106;2023-12-29T09:52:06;3.60;;;2.17;;
4486;SDS011;2256;48.740;9.106;2023-12-29T09:54:35;1.77;;;1.53;;
4486;SDS011;2256;48.740;9.106;2023-12-29T09:57:03;4.53;;;1.67;;
4486;SDS011;2256;48.740;9.106;2023-12-29T09:59:32;3.50;;;1.70;;
4486;SDS011;2256;48.740;9.106;2023-12-29T10:02:00;1.83;;;1.70;;
4486;SDS011;2256;48.740;9.106;2023-12-29T10:04:30;1.83;;;1.53;;
4486;SDS011;2256;48.740;9.106;2023-12-29T10:06:59;1.87;;;1.77;;
4486;SDS011;2256;48.740;9.106;2023-12-29T10:09:31;2.30;;;1.83;;
4486;SDS011;2256;48.740;9.106;2023-12-29T10:12:01;3.73;;;2.03;;
4486;SDS011;2256;48.740;9.106;2023-12-29T10:14:30;2.20;;;1.90;;
4486;SDS011;2256;48.740;9.106;2023-12-29T10:17:12;1.77;;;1.67;;
4486;SDS011;2256;48.740;9.106;2023-12-29T10:19:49;3.03;;;1.90;;
4486;SDS011;2256;48.740;9.106;2023-12-29T10:22:29;1.93;;;1.80;;
4486;SDS011;2256;48.740;9.106;2023-12-29T10:25:14;2.40;;;1.60;;
4486;SDS011;2256;48.740;9.106;2023-12-29T10:27:40;2.70;;;1.70;;
4486;SDS011;2256;48.740;9.106;2023-12-29T10:30:09;1.80;;;1.40;;
4486;SDS011;2256;48.740;9.106;2023-12-29T10:32:39;2.80;;;1.77;;
4486;SDS011;2256;48.740;9.106;2023-12-29T10:35:08;4.03;;;1.50;;
4486;SDS011;2256;48.740;9.106;2023-12-29T10:37:37;2.33;;;1.20;;
4486;SDS011;2256;48.740;9.106;2023-12-29T10:40:05;1.97;;;1.67;;
4486;SDS011;2256;48.740;9.106;2023-12-29T10:42:35;1.87;;;1.27;;
4486;SDS011;2256;48.740;9.106;2023-12-29T10:45:17;1.30;;;1.20;;
4486;SDS011;2256;48.740;9.106;2023-12-29T10:47:43;6.20;;;1.50;;
4486;SDS011;2256;48.740;9.106;2023-12-29T10:50:10;3.73;;;1.40;;
4486;SDS011;2256;48.740;9.106;2023-12-29T10:52:37;1.60;;;1.50;;
4486;SDS011;2256;48.740;9.106;2023-12-29T10:55:06;1.63;;;1.43;;
4486;SDS011;2256;48.740;9.106;2023-12-29T10:57:35;1.30;;;1.20;;
4486;SDS011;2256;48.740;9.106;2023-12-29T11:00:03;1.90;;;1.80;;
4486;SDS011;2256;48.740;9.106;2023-12-29T11:02:33;1.97;;;1.40;;
4486;SDS011;2256;48.740;9.106;2023-12-29T11:05:03;2.00;;;1.63;;
4486;SDS011;2256;48.740;9.106;2023-12-29T11:07:33;2.30;;;1.53;;
4486;SDS011;2256;48.740;9.106;2023-12-29T11:10:03;1.77;;;1.67;;
4486;SDS011;2256;48.740;9.106;2023-12-29T11:12:33;2.83;;;1.80;;
4486;SDS011;2256;48.740;9.106;2023-12-29T11:15:02;1.37;;;1.10;;
4486;SDS011;2256;48.740;9.106;2023-12-29T11:17:30;1.87;;;1.47;;
4486;SDS011;2256;48.740;9.106;2023-12-29T11:19:58;2.63;;;2.03;;
4486;SDS011;2256;48.740;9.106;2023-12-29T11:22:28;2.63;;;1.73;;
4486;SDS011;2256;48.740;9.106;2023-12-29T11:24:56;1.73;;;1.57;;
4486;SDS011;2256;48.740;9.106;2023-12-29T11:27:25;1.53;;;1.43;;
4486;SDS011;2256;48.740;9.106;2023-12-29T11:29:55;1.97;;;1.70;;
4486;SDS011;2256;48.740;9.106;2023-12-29T11:32:24;2.43;;;1.80;;
4486;SDS011;2256;48.740;9.106;2023-12-29T11:35:01;2.50;;;1.50;;
4486;SDS011;2256;48.740;9.106;2023-12-29T11:37:36;2.20;;;2.00;;
4486;SDS011;2256;48.740;9.106;2023-12-29T11:40:25;1.57;;;1.30;;
4486;SDS011;2256;48.740;9.106;2023-12-29T11:42:57;2.70;;;1.40;;
4486;SDS011;2256;48.740;9.106;2023-12-29T11:45:30;1.50;;;1.40;;
4486;SDS011;2256;48.740;9.106;2023-12-29T11:48:00;1.73;;;1.63;;
4486;SDS011;2256;48.740;9.106;2023-12-29T11:50:29;1.30;;;1.20;;
4486;SDS011;2256;48.740;9.106;2023-12-29T11:52:56;2.93;;;1.57;;
4486;SDS011;2256;48.740;9.106;2023-12-29T11:55:27;1.47;;;1.20;;
4486;SDS011;2256;48.740;9.106;2023-12-29T11:57:55;3.07;;;1.53;;
4486;SDS011;2256;48.740;9.106;2023-12-29T12:03:17;1.53;;;1.40;;
4486;SDS011;2256;48.740;9.106;2023-12-29T12:05:46;1.83;;;1.20;;
4486;SDS011;2256;48.740;9.106;2023-12-29T12:10:56;1.43;;;1.27;;
4486;SDS011;2256;48.740;9.106;2023-12-29T12:13:45;1.37;;;1.27;;
4486;SDS011;2256;48.740;9.106;2023-12-29T12:19:14;1.97;;;1.60;;
4486;SDS011;2256;48.740;9.106;2023-12-29T12:21:43;1.87;;;1.33;;
4486;SDS011;2256;48.740;9.106;2023-12-29T12:24:12;1.57;;;1.33;;
4486;SDS011;2256;48.740;9.106;2023-12-29T12:26:40;1.80;;;1.53;;
4486;SDS011;2256;48.740;9.106;2023-12-29T12:29:08;1.73;;;1.10;;
4486;SDS011;2256;48.740;9.106;2023-12-29T12:31:35;2.47;;;1.60;;
4486;SDS011;2256;48.740;9.106;2023-12-29T12:34:02;1.07;;;1.07;;
4486;SDS011;2256;48.740;9.106;2023-12-29T12:36:30;1.60;;;1.50;;
4486;SDS011;2256;48.740;9.106;2023-12-29T12:41:28;1.50;;;1.40;;
4486;SDS011;2256;48.740;9.106;2023-12-29T12:43:57;1.30;;;1.20;;
4486;SDS011;2256;48.740;9.106;2023-12-29T12:46:33;1.50;;;1.40;;
4486;SDS011;2256;48.740;9.106;2023-12-29T12:49:01;1.57;;;1.47;;
4486;SDS011;2256;48.740;9.106;2023-12-29T12:51:30;1.53;;;1.43;;
4486;SDS011;2256;48.740;9.106;2023-12-29T12:53:58;3.03;;;1.20;;
4486;SDS011;2256;48.740;9.106;2023-12-29T12:56:26;1.63;;;1.53;;
4486;SDS011;2256;48.740;9.106;2023-12-29T12:58:54;2.07;;;1.30;;
4486;SDS011;2256;48.740;9.106;2023-12-29T13:01:22;3.30;;;1.30;;
4486;SDS011;2256;48.740;9.106;2023-12-29T13:03:50;4.07;;;1.40;;
4486;SDS011;2256;48.740;9.106;2023-12-29T13:06:18;1.50;;;1.40;;
4486;SDS011;2256;48.740;9.106;2023-12-29T13:08:45;2.93;;;1.40;;
4486;SDS011;2256;48.740;9.106;2023-12-29T13:11:18;2.30;;;1.43;;
4486;SDS011;2256;48.740;9.106;2023-12-29T13:13:47;1.30;;;1.20;;
4486;SDS011;2256;48.740;9.106;2023-12-29T13:16:16;1.57;;;1.47;;
4486;SDS011;2256;48.740;9.106;2023-12-29T13:18:43;1.30;;;1.20;;
4486;SDS011;2256;48.740;9.106;2023-12-29T13:21:16;1.53;;;1.43;;
4486;SDS011;2256;48.740;9.106;2023-12-29T13:23:44;2.70;;;1.30;;
4486;SDS011;2256;48.740;9.106;2023-12-29T13:26:11;1.50;;;1.03;;
4486;SDS011;2256;48.740;9.106;2023-12-29T13:28:38;1.87;;;1.20;;
4486;SDS011;2256;48.740;9.106;2023-12-29T13:31:07;8.53;;;1.43;;
4486;SDS011;2256;48.740;9.106;2023-12-29T13:33:41;2.00;;;1.27;;
4486;SDS011;2256;48.740;9.106;2023-12-29T13:36:18;1.90;;;1.30;;
4486;SDS011;2256;48.740;9.106;2023-12-29T13:38:50;1.87;;;1.70;;
4486;SDS011;2256;48.740;9.106;2023-12-29T13:41:19;1.20;;;1.10;;
4486;SDS011;2256;48.740;9.106;2023-12-29T13:43:49;1.43;;;1.33;;
4486;SDS011;2256;48.740;9.106;2023-12-29T13:46:18;2.60;;;1.20;;
4486;SDS011;2256;48.740;9.106;2023-12-29T13:48:45;1.20;;;1.10;;
4486;SDS011;2256;48.740;9.106;2023-12-29T13:51:17;1.30;;;1.20;;
4486;SDS011;2256;48.740;9.106;2023-12-29T13:53:49;2.00;;;1.50;;
4486;SDS011;2256;48.740;9.106;2023-12-29T13:56:23;1.13;;;1.07;;
4486;SDS011;2256;48.740;9.106;2023-12-29T13:58:51;7.53;;;1.63;;
4486;SDS011;2256;48.740;9.106;2023-12-29T14:01:18;1.37;;;1.27;;
4486;SDS011;2256;48.740;9.106;2023-12-29T14:03:46;1.50;;;1.40;;
4486;SDS011;2256;48.740;9.106;2023-12-29T14:06:21;4.70;;;1.30;;
4486;SDS011;2256;48.740;9.106;2023-12-29T14:08:54;1.73;;;1.63;;
4486;SDS011;2256;48.740;9.106;2023-12-29T14:11:21;2.50;;;1.37;;
4486;SDS011;2256;48.740;9.106;2023-12-29T14:13:50;3.60;;;1.50;;
4486;SDS011;2256;48.740;9.106;2023-12-29T14:16:17;2.17;;;1.40;;
4486;SDS011;2256;48.740;9.106;2023-12-29T14:18:52;1.63;;;1.40;;
4486;SDS011;2256;48.740;9.106;2023-12-29T14:21:26;1.37;;;1.27;;
4486;SDS011;2256;48.740;9.106;2023-12-29T14:24:01;1.60;;;1.33;;
4486;SDS011;2256;48.740;9.106;2023-12-29T14:26:37;2.70;;;1.50;;
4486;SDS011;2256;48.740;9.106;2023-12-29T14:29:05;3.27;;;1.20;;
4486;SDS011;2256;48.740;9.106;2023-12-29T14:31:36;1.63;;;1.50;;
4486;SDS011;2256;48.740;9.106;2023-12-29T14:34:04;1.50;;;1.40;;
4486;SDS011;2256;48.740;9.106;2023-12-29T14:36:32;7.50;;;1.23;;
4486;SDS011;2256;48.740;9.106;2023-12-29T14:39:00;1.80;;;1.57;;
4486;SDS011;2256;48.740;9.106;2023-12-29T14:41:28;4.17;;;1.37;;
4486;SDS011;2256;48.740;9.106;2023-12-29T14:43:55;2.20;;;1.30;;
4486;SDS011;2256;48.740;9.106;2023-12-29T14:46:23;1.53;;;1.43;;
4486;SDS011;2256;48.740;9.106;2023-12-29T14:48:51;2.70;;;1.70;;
4486;SDS011;2256;48.740;9.106;2023-12-29T14:51:19;1.80;;;1.53;;
4486;SDS011;2256;48.740;9.106;2023-12-29T14:53:48;2.00;;;1.40;;
4486;SDS011;2256;48.740;9.106;2023-12-29T14:56:15;2.30;;;1.53;;
4486;SDS011;2256;48.740;9.106;2023-12-29T14:58:42;4.10;;;1.60;;
4486;SDS011;2256;48.740;9.106;2023-12-29T15:01:10;1.60;;;1.20;;
4486;SDS011;2256;48.740;9.106;2023-12-29T15:03:37;1.37;;;1.27;;
4486;SDS011;2256;48.740;9.106;2023-12-29T15:06:06;1.83;;;1.60;;
4486;SDS011;2256;48.740;9.106;2023-12-29T15:08:32;2.33;;;1.57;;
4486;SDS011;2256;48.740;9.106;2023-12-29T15:11:03;1.33;;;1.23;;
4486;SDS011;2256;48.740;9.106;2023-12-29T15:13:31;3.70;;;1.87;;
4486;SDS011;2256;48.740;9.106;2023-12-29T15:16:00;2.07;;;1.20;;
4486;SDS011;2256;48.740;9.106;2023-12-29T15:18:27;4.33;;;1.50;;
4486;SDS011;2256;48.740;9.106;2023-12-29T15:20:55;1.50;;;1.40;;
4486;SDS011;2256;48.740;9.106;2023-12-29T15:23:22;2.40;;;1.17;;
4486;SDS011;2256;48.740;9.106;2023-12-29T15:25:50;1.90;;;1.73;;
4486;SDS011;2256;48.740;9.106;2023-12-29T15:28:18;3.53;;;1.77;;
4486;SDS011;2256;48.740;9.106;2023-12-29T15:30:46;2.60;;;1.43;;
4486;SDS011;2256;48.740;9.106;2023-12-29T15:33:14;1.60;;;1.43;;